sensor_id;sensor_type;location;lat;lon;timestamp;pressure;altitude;pressure_sealevel;temperature;humidity
62697;BME280;48761;42.680;23.312;2023-08-06T00:00:41;93720.91;;;23.55;68.23
62697;BME280;48761;42.680;23.312;2023-08-06T00:03:07;93692.44;;;22.25;71.74
62697;BME280;48761;42.680;23.312;2023-08-06T00:05:33;93728.09;;;21.38;74.31
62697;BME280;48761;42.680;23.312;2023-08-06T00:07:59;93762.00;;;22.51;72.35
62697;BME280;48761;42.680;23.312;2023-08-06T00:10:25;93743.06;;;22.24;70.52
62697;BME280;48761;42.680;23.312;2023-08-06T00:12:51;93738.53;;;21.48;74.96
62697;BME280;48761;42.680;23.312;2023-08-06T00:15:17;93752.06;;;21.55;75.80
62697;BME280;48761;42.680;23.312;2023-08-06T00:17:43;93731.66;;;21.46;76.57
62697;BME280;48761;42.680;23.312;2023-08-06T00:20:09;93709.34;;;21.23;75.44
62697;BME280;48761;42.680;23.312;2023-08-06T00:22:36;93703.63;;;21.67;74.15
62697;BME280;48761;42.680;23.312;2023-08-06T00:25:04;93739.50;;;22.51;73.57
62697;BME280;48761;42.680;23.312;2023-08-06T00:27:30;93734.91;;;22.79;73.41
62697;BME280;48761;42.680;23.312;2023-08-06T00:29:56;93709.84;;;22.97;71.82
62697;BME280;48761;42.680;23.312;2023-08-06T00:32:22;93718.69;;;22.11;74.08
62697;BME280;48761;42.680;23.312;2023-08-06T00:34:48;93716.38;;;22.35;74.36
62697;BME280;48761;42.680;23.312;2023-08-06T00:37:14;93681.84;;;22.23;73.53
62697;BME280;48761;42.680;23.312;2023-08-06T00:39:40;93709.28;;;22.61;73.04
62697;BME280;48761;42.680;23.312;2023-08-06T00:42:05;93699.97;;;22.16;73.73
62697;BME280;48761;42.680;23.312;2023-08-06T00:44:31;93713.19;;;21.56;76.26
62697;BME280;48761;42.680;23.312;2023-08-06T00:46:58;93708.63;;;21.77;75.14
62697;BME280;48761;42.680;23.312;2023-08-06T00:49:24;93701.41;;;21.98;73.90
62697;BME280;48761;42.680;23.312;2023-08-06T00:51:50;93706.16;;;22.50;72.12
62697;BME280;48761;42.680;23.312;2023-08-06T00:54:16;93684.50;;;22.50;72.73
62697;BME280;48761;42.680;23.312;2023-08-06T00:56:50;93659.97;;;22.52;71.97
62697;BME280;48761;42.680;23.312;2023-08-06T00:59:15;93684.66;;;22.83;71.63
62697;BME280;48761;42.680;23.312;2023-08-06T01:01:41;93687.31;;;23.10;71.25
62697;BME280;48761;42.680;23.312;2023-08-06T01:04:07;93676.88;;;23.07;70.30
62697;BME280;48761;42.680;23.312;2023-08-06T01:07:08;93680.81;;;23.11;69.91
62697;BME280;48761;42.680;23.312;2023-08-06T01:15:07;93664.78;;;23.10;70.29
62697;BME280;48761;42.680;23.312;2023-08-06T01:17:37;93661.91;;;23.04;69.83
62697;BME280;48761;42.680;23.312;2023-08-06T01:20:04;93665.56;;;23.24;70.01
62697;BME280;48761;42.680;23.312;2023-08-06T01:22:30;93659.13;;;22.51;72.88
62697;BME280;48761;42.680;23.312;2023-08-06T01:24:56;93665.34;;;22.72;72.53
62697;BME280;48761;42.680;23.312;2023-08-06T01:27:31;93661.13;;;22.83;72.20
62697;BME280;48761;42.680;23.312;2023-08-06T01:30:32;93663.03;;;23.29;70.97
62697;BME280;48761;42.680;23.312;2023-08-06T01:32:54;93654.28;;;23.27;70.93
62697;BME280;48761;42.680;23.312;2023-08-06T01:35:22;93640.56;;;23.22;71.18
62697;BME280;48761;42.680;23.312;2023-08-06T01:37:49;93650.09;;;23.31;70.60
62697;BME280;48761;42.680;23.312;2023-08-06T01:40:15;93646.56;;;23.31;70.14
62697;BME280;48761;42.680;23.312;2023-08-06T01:42:41;93638.44;;;23.31;70.61
62697;BME280;48761;42.680;23.312;2023-08-06T01:45:07;93648.97;;;23.06;72.41
62697;BME280;48761;42.680;23.312;2023-08-06T01:47:34;93641.94;;;23.38;71.51
62697;BME280;48761;42.680;23.312;2023-08-06T01:50:00;93642.13;;;23.43;71.35
62697;BME280;48761;42.680;23.312;2023-08-06T01:52:26;93647.19;;;23.26;71.46
62697;BME280;48761;42.680;23.312;2023-08-06T01:54:52;93658.75;;;23.47;70.85
62697;BME280;48761;42.680;23.312;2023-08-06T01:57:18;93633.47;;;23.21;70.92
62697;BME280;48761;42.680;23.312;2023-08-06T01:59:44;93647.84;;;23.28;70.31
62697;BME280;48761;42.680;23.312;2023-08-06T02:02:10;93643.78;;;23.51;69.30
62697;BME280;48761;42.680;23.312;2023-08-06T02:04:36;93625.00;;;23.49;69.31
62697;BME280;48761;42.680;23.312;2023-08-06T02:07:02;93635.13;;;23.22;70.01
62697;BME280;48761;42.680;23.312;2023-08-06T02:09:27;93630.31;;;23.24;70.23
62697;BME280;48761;42.680;23.312;2023-08-06T02:11:53;93618.69;;;22.70;72.00
62697;BME280;48761;42.680;23.312;2023-08-06T02:14:19;93616.69;;;23.05;70.51
62697;BME280;48761;42.680;23.312;2023-08-06T02:16:45;93642.41;;;23.28;70.24
62697;BME280;48761;42.680;23.312;2023-08-06T02:19:11;93649.69;;;23.27;69.70
62697;BME280;48761;42.680;23.312;2023-08-06T02:21:37;93636.44;;;23.12;70.17
62697;BME280;48761;42.680;23.312;2023-08-06T02:24:03;93662.19;;;23.28;70.37
62697;BME280;48761;42.680;23.312;2023-08-06T02:26:29;93671.34;;;23.34;70.14
62697;BME280;48761;42.680;23.312;2023-08-06T02:28:55;93644.50;;;22.80;72.82
62697;BME280;48761;42.680;23.312;2023-08-06T02:31:21;93629.59;;;21.61;78.04
62697;BME280;48761;42.680;23.312;2023-08-06T02:33:47;93635.81;;;22.30;77.98
62697;BME280;48761;42.680;23.312;2023-08-06T02:36:13;93632.09;;;21.70;78.59
62697;BME280;48761;42.680;23.312;2023-08-06T02:38:40;93651.25;;;22.36;78.21
62697;BME280;48761;42.680;23.312;2023-08-06T02:41:06;93667.38;;;22.84;76.25
62697;BME280;48761;42.680;23.312;2023-08-06T02:43:32;93679.69;;;22.80;75.14
62697;BME280;48761;42.680;23.312;2023-08-06T02:46:01;93697.41;;;22.76;75.41
62697;BME280;48761;42.680;23.312;2023-08-06T02:48:27;93673.47;;;22.72;75.06
62697;BME280;48761;42.680;23.312;2023-08-06T02:50:57;93659.75;;;22.47;75.10
62697;BME280;48761;42.680;23.312;2023-08-06T02:53:23;93654.16;;;22.28;76.88
62697;BME280;48761;42.680;23.312;2023-08-06T02:55:49;93616.94;;;22.16;76.47
62697;BME280;48761;42.680;23.312;2023-08-06T02:58:15;93627.13;;;22.21;78.21
62697;BME280;48761;42.680;23.312;2023-08-06T03:00:41;93606.09;;;21.82;79.55
62697;BME280;48761;42.680;23.312;2023-08-06T03:03:07;93599.22;;;21.32;82.17
62697;BME280;48761;42.680;23.312;2023-08-06T03:05:32;93642.53;;;21.93;78.79
62697;BME280;48761;42.680;23.312;2023-08-06T03:07:58;93607.38;;;21.66;79.61
62697;BME280;48761;42.680;23.312;2023-08-06T03:10:24;93582.13;;;21.04;82.87
62697;BME280;48761;42.680;23.312;2023-08-06T03:12:50;93562.81;;;20.52;83.79
62697;BME280;48761;42.680;23.312;2023-08-06T03:15:16;93625.22;;;21.74;80.11
62697;BME280;48761;42.680;23.312;2023-08-06T03:17:42;93639.81;;;22.21;77.45
62697;BME280;48761;42.680;23.312;2023-08-06T03:20:08;93606.47;;;22.40;77.37
62697;BME280;48761;42.680;23.312;2023-08-06T03:22:34;93583.84;;;22.08;79.04
62697;BME280;48761;42.680;23.312;2023-08-06T03:25:00;93560.78;;;21.50;81.14
62697;BME280;48761;42.680;23.312;2023-08-06T03:27:26;93571.38;;;22.06;78.76
62697;BME280;48761;42.680;23.312;2023-08-06T03:29:51;93603.16;;;22.32;78.91
62697;BME280;48761;42.680;23.312;2023-08-06T03:32:17;93635.59;;;22.52;78.28
62697;BME280;48761;42.680;23.312;2023-08-06T03:34:43;93627.06;;;22.35;76.71
62697;BME280;48761;42.680;23.312;2023-08-06T03:37:09;93636.69;;;21.90;77.28
62697;BME280;48761;42.680;23.312;2023-08-06T03:39:35;93658.34;;;21.90;78.60
62697;BME280;48761;42.680;23.312;2023-08-06T03:42:01;93620.16;;;21.16;80.81
62697;BME280;48761;42.680;23.312;2023-08-06T03:44:27;93640.00;;;21.58;81.43
62697;BME280;48761;42.680;23.312;2023-08-06T03:46:53;93658.56;;;22.09;79.56
62697;BME280;48761;42.680;23.312;2023-08-06T03:49:19;93645.63;;;21.97;79.62
62697;BME280;48761;42.680;23.312;2023-08-06T03:51:45;93639.97;;;21.37;81.46
62697;BME280;48761;42.680;23.312;2023-08-06T03:54:11;93653.09;;;21.68;81.53
62697;BME280;48761;42.680;23.312;2023-08-06T03:56:37;93655.84;;;21.95;80.19
62697;BME280;48761;42.680;23.312;2023-08-06T03:59:03;93647.50;;;22.31;79.07
62697;BME280;48761;42.680;23.312;2023-08-06T04:01:29;93658.28;;;22.51;77.70
62697;BME280;48761;42.680;23.312;2023-08-06T04:03:55;93664.53;;;22.51;78.04
62697;BME280;48761;42.680;23.312;2023-08-06T04:06:21;93663.25;;;22.61;76.75
62697;BME280;48761;42.680;23.312;2023-08-06T04:08:47;93669.91;;;22.65;77.22
62697;BME280;48761;42.680;23.312;2023-08-06T04:11:13;93670.75;;;22.59;76.35
62697;BME280;48761;42.680;23.312;2023-08-06T04:13:42;93678.88;;;22.59;76.27
62697;BME280;48761;42.680;23.312;2023-08-06T04:16:08;93678.69;;;22.54;76.48
62697;BME280;48761;42.680;23.312;2023-08-06T04:18:34;93678.53;;;22.08;78.75
62697;BME280;48761;42.680;23.312;2023-08-06T04:21:02;93677.44;;;21.68;80.89
62697;BME280;48761;42.680;23.312;2023-08-06T04:23:28;93672.09;;;22.02;79.88
62697;BME280;48761;42.680;23.312;2023-08-06T04:25:58;93642.09;;;22.24;78.63
62697;BME280;48761;42.680;23.312;2023-08-06T04:28:24;93658.66;;;22.68;77.54
62697;BME280;48761;42.680;23.312;2023-08-06T04:30:50;93656.97;;;22.81;77.25
62697;BME280;48761;42.680;23.312;2023-08-06T04:33:15;93652.41;;;22.68;77.05
62697;BME280;48761;42.680;23.312;2023-08-06T04:35:41;93651.16;;;22.70;76.53
62697;BME280;48761;42.680;23.312;2023-08-06T04:38:07;93626.16;;;22.82;75.83
62697;BME280;48761;42.680;23.312;2023-08-06T04:40:35;93633.41;;;22.95;75.46
62697;BME280;48761;42.680;23.312;2023-08-06T04:43:00;93629.91;;;22.81;76.45
62697;BME280;48761;42.680;23.312;2023-08-06T04:45:26;93617.03;;;22.56;76.46
62697;BME280;48761;42.680;23.312;2023-08-06T04:47:52;93618.56;;;22.17;77.86
62697;BME280;48761;42.680;23.312;2023-08-06T04:50:20;93606.09;;;22.23;78.52
62697;BME280;48761;42.680;23.312;2023-08-06T04:52:46;93591.09;;;22.27;78.98
62697;BME280;48761;42.680;23.312;2023-08-06T04:55:12;93551.56;;;22.13;79.00
62697;BME280;48761;42.680;23.312;2023-08-06T04:57:37;93588.25;;;22.68;78.15
62697;BME280;48761;42.680;23.312;2023-08-06T05:00:04;93580.44;;;22.46;78.99
62697;BME280;48761;42.680;23.312;2023-08-06T05:02:30;93571.31;;;22.20;78.90
62697;BME280;48761;42.680;23.312;2023-08-06T05:04:56;93584.97;;;22.53;78.16
62697;BME280;48761;42.680;23.312;2023-08-06T05:07:22;93581.94;;;22.88;75.64
62697;BME280;48761;42.680;23.312;2023-08-06T05:09:48;93586.72;;;23.32;76.93
62697;BME280;48761;42.680;23.312;2023-08-06T05:12:14;93581.09;;;24.11;74.29
62697;BME280;48761;42.680;23.312;2023-08-06T05:14:39;93589.59;;;24.78;71.74
62697;BME280;48761;42.680;23.312;2023-08-06T05:17:05;93600.97;;;25.05;71.25
62697;BME280;48761;42.680;23.312;2023-08-06T05:19:31;93581.75;;;25.07;71.26
62697;BME280;48761;42.680;23.312;2023-08-06T05:21:58;93590.66;;;25.57;68.14
62697;BME280;48761;42.680;23.312;2023-08-06T05:24:24;93590.13;;;25.79;67.93
62697;BME280;48761;42.680;23.312;2023-08-06T05:26:50;93588.84;;;26.42;65.56
62697;BME280;48761;42.680;23.312;2023-08-06T05:29:16;93597.34;;;25.73;66.39
62697;BME280;48761;42.680;23.312;2023-08-06T05:31:42;93600.13;;;25.67;68.23
62697;BME280;48761;42.680;23.312;2023-08-06T05:34:08;93586.97;;;25.21;68.33
62697;BME280;48761;42.680;23.312;2023-08-06T05:36:34;93597.09;;;25.32;68.03
62697;BME280;48761;42.680;23.312;2023-08-06T05:39:00;93574.69;;;26.04;65.96
62697;BME280;48761;42.680;23.312;2023-08-06T05:41:26;93565.19;;;26.06;64.31
62697;BME280;48761;42.680;23.312;2023-08-06T05:43:52;93595.81;;;25.47;64.98
62697;BME280;48761;42.680;23.312;2023-08-06T05:46:18;93578.91;;;25.88;65.73
62697;BME280;48761;42.680;23.312;2023-08-06T05:48:44;93582.00;;;26.03;64.16
62697;BME280;48761;42.680;23.312;2023-08-06T05:51:10;93585.03;;;25.71;63.27
62697;BME280;48761;42.680;23.312;2023-08-06T05:53:36;93599.63;;;26.01;62.10
62697;BME280;48761;42.680;23.312;2023-08-06T05:56:02;93593.25;;;26.31;62.71
62697;BME280;48761;42.680;23.312;2023-08-06T05:58:28;93606.53;;;27.05;58.66
62697;BME280;48761;42.680;23.312;2023-08-06T06:00:54;93605.06;;;26.37;59.29
62697;BME280;48761;42.680;23.312;2023-08-06T06:03:20;93611.34;;;26.73;58.85
62697;BME280;48761;42.680;23.312;2023-08-06T06:05:46;93599.69;;;26.90;56.16
62697;BME280;48761;42.680;23.312;2023-08-06T06:08:12;93611.03;;;27.40;56.52
62697;BME280;48761;42.680;23.312;2023-08-06T06:10:38;93611.34;;;26.73;57.71
62697;BME280;48761;42.680;23.312;2023-08-06T06:13:04;93621.06;;;27.11;57.21
62697;BME280;48761;42.680;23.312;2023-08-06T06:15:29;93623.69;;;26.64;56.57
62697;BME280;48761;42.680;23.312;2023-08-06T06:17:56;93628.63;;;28.26;53.15
62697;BME280;48761;42.680;23.312;2023-08-06T06:20:22;93622.47;;;27.84;53.64
62697;BME280;48761;42.680;23.312;2023-08-06T06:22:47;93643.16;;;27.97;52.64
62697;BME280;48761;42.680;23.312;2023-08-06T06:25:14;93633.94;;;27.39;52.11
62697;BME280;48761;42.680;23.312;2023-08-06T06:27:40;93654.75;;;28.04;51.97
62697;BME280;48761;42.680;23.312;2023-08-06T06:30:07;93644.81;;;27.98;51.50
62697;BME280;48761;42.680;23.312;2023-08-06T06:32:33;93654.19;;;27.73;51.37
62697;BME280;48761;42.680;23.312;2023-08-06T06:34:58;93650.72;;;27.19;54.69
62697;BME280;48761;42.680;23.312;2023-08-06T06:37:25;93659.56;;;26.61;55.84
62697;BME280;48761;42.680;23.312;2023-08-06T06:39:51;93671.22;;;26.01;55.95
62697;BME280;48761;42.680;23.312;2023-08-06T06:42:17;93678.72;;;26.30;54.82
62697;BME280;48761;42.680;23.312;2023-08-06T06:44:42;93676.47;;;26.39;54.71
62697;BME280;48761;42.680;23.312;2023-08-06T06:47:08;93669.03;;;26.34;55.31
62697;BME280;48761;42.680;23.312;2023-08-06T06:49:34;93690.38;;;26.06;56.46
62697;BME280;48761;42.680;23.312;2023-08-06T06:52:01;93689.81;;;25.24;59.68
62697;BME280;48761;42.680;23.312;2023-08-06T06:54:26;93693.31;;;25.12;59.42
62697;BME280;48761;42.680;23.312;2023-08-06T06:56:52;93662.63;;;24.48;59.86
62697;BME280;48761;42.680;23.312;2023-08-06T06:59:20;93697.53;;;25.08;58.69
62697;BME280;48761;42.680;23.312;2023-08-06T07:01:45;93706.38;;;26.15;56.22
62697;BME280;48761;42.680;23.312;2023-08-06T07:04:14;93667.38;;;26.45;53.76
62697;BME280;48761;42.680;23.312;2023-08-06T07:06:43;93683.59;;;26.88;52.89
62697;BME280;48761;42.680;23.312;2023-08-06T07:09:12;93673.16;;;27.50;51.45
62697;BME280;48761;42.680;23.312;2023-08-06T07:11:45;93704.53;;;25.84;54.23
62697;BME280;48761;42.680;23.312;2023-08-06T07:17:12;93707.63;;;26.91;50.07
62697;BME280;48761;42.680;23.312;2023-08-06T07:19:38;93724.88;;;26.37;50.76
62697;BME280;48761;42.680;23.312;2023-08-06T07:22:04;93691.88;;;26.45;49.39
62697;BME280;48761;42.680;23.312;2023-08-06T07:25:06;93722.47;;;26.59;50.42
62697;BME280;48761;42.680;23.312;2023-08-06T07:27:44;93709.41;;;26.97;49.33
62697;BME280;48761;42.680;23.312;2023-08-06T07:30:50;93720.34;;;27.51;47.75
62697;BME280;48761;42.680;23.312;2023-08-06T07:33:22;93710.66;;;27.31;47.72
62697;BME280;48761;42.680;23.312;2023-08-06T07:36:06;93682.53;;;26.53;49.13
62697;BME280;48761;42.680;23.312;2023-08-06T07:38:47;93713.75;;;27.11;48.89
62697;BME280;48761;42.680;23.312;2023-08-06T07:41:16;93713.34;;;26.90;49.32
62697;BME280;48761;42.680;23.312;2023-08-06T07:43:58;93715.44;;;26.88;48.69
62697;BME280;48761;42.680;23.312;2023-08-06T07:46:27;93697.66;;;27.62;47.36
62697;BME280;48761;42.680;23.312;2023-08-06T07:48:53;93718.66;;;28.38;45.49
62697;BME280;48761;42.680;23.312;2023-08-06T07:51:19;93707.38;;;28.34;45.69
62697;BME280;48761;42.680;23.312;2023-08-06T07:53:45;93705.91;;;28.26;45.74
62697;BME280;48761;42.680;23.312;2023-08-06T07:56:11;93701.38;;;28.49;46.10
62697;BME280;48761;42.680;23.312;2023-08-06T07:58:37;93697.59;;;28.90;44.31
62697;BME280;48761;42.680;23.312;2023-08-06T08:01:03;93692.44;;;29.56;43.52
62697;BME280;48761;42.680;23.312;2023-08-06T08:03:29;93690.25;;;28.73;44.69
62697;BME280;48761;42.680;23.312;2023-08-06T08:05:55;93692.66;;;28.70;44.99
62697;BME280;48761;42.680;23.312;2023-08-06T08:08:21;93706.34;;;29.27;44.12
62697;BME280;48761;42.680;23.312;2023-08-06T08:10:50;93705.44;;;28.64;45.74
62697;BME280;48761;42.680;23.312;2023-08-06T08:13:18;93702.22;;;29.07;45.55
62697;BME280;48761;42.680;23.312;2023-08-06T08:16:02;93690.44;;;28.49;45.76
62697;BME280;48761;42.680;23.312;2023-08-06T08:18:32;93677.34;;;28.69;44.33
62697;BME280;48761;42.680;23.312;2023-08-06T08:20:58;93704.84;;;28.62;44.94
62697;BME280;48761;42.680;23.312;2023-08-06T08:23:25;93689.16;;;29.09;43.05
62697;BME280;48761;42.680;23.312;2023-08-06T08:25:51;93703.25;;;29.91;41.88
62697;BME280;48761;42.680;23.312;2023-08-06T08:28:16;93705.22;;;28.19;45.53
62697;BME280;48761;42.680;23.312;2023-08-06T08:30:43;93697.47;;;27.81;47.29
62697;BME280;48761;42.680;23.312;2023-08-06T08:33:11;93690.81;;;27.77;47.09
62697;BME280;48761;42.680;23.312;2023-08-06T08:35:42;93672.91;;;27.81;46.59
62697;BME280;48761;42.680;23.312;2023-08-06T08:38:22;93693.34;;;27.37;47.57
62697;BME280;48761;42.680;23.312;2023-08-06T08:40:53;93663.09;;;27.39;47.12
62697;BME280;48761;42.680;23.312;2023-08-06T08:43:27;93663.06;;;27.09;48.69
62697;BME280;48761;42.680;23.312;2023-08-06T08:46:13;93691.91;;;28.05;47.42
62697;BME280;48761;42.680;23.312;2023-08-06T08:48:41;93682.19;;;27.80;47.59
62697;BME280;48761;42.680;23.312;2023-08-06T08:51:10;93681.38;;;28.31;45.77
62697;BME280;48761;42.680;23.312;2023-08-06T09:03:14;93653.03;;;27.39;48.79
62697;BME280;48761;42.680;23.312;2023-08-06T09:08:41;93635.88;;;27.27;48.77
62697;BME280;48761;42.680;23.312;2023-08-06T09:11:09;93679.97;;;27.94;47.43
62697;BME280;48761;42.680;23.312;2023-08-06T09:13:36;93643.75;;;27.40;48.52
62697;BME280;48761;42.680;23.312;2023-08-06T09:16:03;93653.84;;;27.98;47.72
62697;BME280;48761;42.680;23.312;2023-08-06T09:18:30;93638.34;;;28.73;46.13
62697;BME280;48761;42.680;23.312;2023-08-06T09:20:59;93663.53;;;27.77;47.84
62697;BME280;48761;42.680;23.312;2023-08-06T09:23:29;93657.66;;;28.32;47.13
62697;BME280;48761;42.680;23.312;2023-08-06T09:25:59;93657.88;;;27.67;48.22
62697;BME280;48761;42.680;23.312;2023-08-06T09:28:42;93646.25;;;28.01;45.93
62697;BME280;48761;42.680;23.312;2023-08-06T09:31:10;93629.78;;;28.13;45.21
62697;BME280;48761;42.680;23.312;2023-08-06T09:33:37;93637.38;;;28.11;45.37
62697;BME280;48761;42.680;23.312;2023-08-06T09:36:12;93648.47;;;27.74;44.43
62697;BME280;48761;42.680;23.312;2023-08-06T09:38:40;93626.34;;;28.40;43.59
62697;BME280;48761;42.680;23.312;2023-08-06T09:41:06;93646.94;;;29.05;41.45
62697;BME280;48761;42.680;23.312;2023-08-06T09:43:45;93635.34;;;28.97;41.08
62697;BME280;48761;42.680;23.312;2023-08-06T09:46:12;93640.31;;;29.46;40.14
62697;BME280;48761;42.680;23.312;2023-08-06T09:48:50;93628.28;;;28.22;42.17
62697;BME280;48761;42.680;23.312;2023-08-06T09:51:19;93637.44;;;28.90;39.26
62697;BME280;48761;42.680;23.312;2023-08-06T09:53:57;93643.84;;;29.18;39.39
62697;BME280;48761;42.680;23.312;2023-08-06T09:56:44;93640.13;;;28.85;41.35
62697;BME280;48761;42.680;23.312;2023-08-06T09:59:21;93653.66;;;29.14;40.50
62697;BME280;48761;42.680;23.312;2023-08-06T10:01:56;93644.50;;;29.26;39.87
62697;BME280;48761;42.680;23.312;2023-08-06T10:04:33;93643.56;;;28.40;41.10
62697;BME280;48761;42.680;23.312;2023-08-06T10:07:26;93617.97;;;27.78;41.83
62697;BME280;48761;42.680;23.312;2023-08-06T10:10:15;93644.47;;;28.12;41.79
62697;BME280;48761;42.680;23.312;2023-08-06T11:20:41;93731.03;;;26.32;50.39
62697;BME280;48761;42.680;23.312;2023-08-06T11:23:10;93731.28;;;26.30;51.94
62697;BME280;48761;42.680;23.312;2023-08-06T11:25:36;93744.22;;;26.47;53.57
62697;BME280;48761;42.680;23.312;2023-08-06T11:28:02;93748.84;;;26.95;53.90
62697;BME280;48761;42.680;23.312;2023-08-06T11:30:28;93726.69;;;27.03;52.20
62697;BME280;48761;42.680;23.312;2023-08-06T11:32:54;93721.59;;;27.07;52.66
62697;BME280;48761;42.680;23.312;2023-08-06T11:35:20;93723.94;;;27.69;51.42
62697;BME280;48761;42.680;23.312;2023-08-06T11:37:46;93723.16;;;27.97;49.03
62697;BME280;48761;42.680;23.312;2023-08-06T11:40:14;93723.94;;;28.27;48.01
62697;BME280;48761;42.680;23.312;2023-08-06T11:42:40;93727.91;;;28.37;48.08
62697;BME280;48761;42.680;23.312;2023-08-06T11:45:07;93716.41;;;28.35;48.71
62697;BME280;48761;42.680;23.312;2023-08-06T11:47:33;93711.28;;;28.38;47.89
62697;BME280;48761;42.680;23.312;2023-08-06T11:49:59;93697.88;;;28.37;48.10
62697;BME280;48761;42.680;23.312;2023-08-06T11:52:25;93708.69;;;28.31;48.20
62697;BME280;48761;42.680;23.312;2023-08-06T11:57:26;93701.44;;;28.20;48.25
62697;BME280;48761;42.680;23.312;2023-08-06T11:59:54;93704.09;;;28.49;47.29
62697;BME280;48761;42.680;23.312;2023-08-06T12:02:21;93696.47;;;28.34;47.67
62697;BME280;48761;42.680;23.312;2023-08-06T12:05:19;93694.16;;;28.78;46.28
62697;BME280;48761;42.680;23.312;2023-08-06T12:07:51;93683.84;;;29.02;45.67
62697;BME280;48761;42.680;23.312;2023-08-06T12:10:19;93685.69;;;28.27;47.18
62697;BME280;48761;42.680;23.312;2023-08-06T12:12:45;93693.16;;;28.84;45.86
62697;BME280;48761;42.680;23.312;2023-08-06T12:15:11;93680.88;;;28.86;43.21
62697;BME280;48761;42.680;23.312;2023-08-06T12:17:38;93680.34;;;29.07;42.60
62697;BME280;48761;42.680;23.312;2023-08-06T12:20:05;93688.09;;;28.75;42.16
62697;BME280;48761;42.680;23.312;2023-08-06T12:22:32;93692.28;;;29.01;41.61
62697;BME280;48761;42.680;23.312;2023-08-06T12:24:58;93686.06;;;28.65;42.32
62697;BME280;48761;42.680;23.312;2023-08-06T12:27:24;93684.38;;;28.30;42.52
62697;BME280;48761;42.680;23.312;2023-08-06T12:29:50;93684.56;;;28.23;41.92
62697;BME280;48761;42.680;23.312;2023-08-06T12:32:16;93683.22;;;28.26;42.75
62697;BME280;48761;42.680;23.312;2023-08-06T12:34:42;93684.41;;;28.47;42.24
62697;BME280;48761;42.680;23.312;2023-08-06T12:37:08;93681.75;;;28.52;42.47
62697;BME280;48761;42.680;23.312;2023-08-06T12:39:35;93696.06;;;28.60;42.48
62697;BME280;48761;42.680;23.312;2023-08-06T12:42:03;93689.47;;;28.56;42.96
62697;BME280;48761;42.680;23.312;2023-08-06T12:44:29;93677.78;;;27.79;43.50
62697;BME280;48761;42.680;23.312;2023-08-06T12:46:55;93683.47;;;27.78;44.39
62697;BME280;48761;42.680;23.312;2023-08-06T12:49:21;93672.44;;;28.19;43.49
62697;BME280;48761;42.680;23.312;2023-08-06T12:51:48;93679.75;;;28.30;42.96
62697;BME280;48761;42.680;23.312;2023-08-06T12:54:16;93680.75;;;28.41;42.69
62697;BME280;48761;42.680;23.312;2023-08-06T12:56:43;93677.97;;;28.53;42.79
62697;BME280;48761;42.680;23.312;2023-08-06T12:59:09;93681.94;;;28.46;43.00
62697;BME280;48761;42.680;23.312;2023-08-06T13:01:34;93685.91;;;27.91;43.02
62697;BME280;48761;42.680;23.312;2023-08-06T13:04:00;93679.19;;;27.82;43.43
62697;BME280;48761;42.680;23.312;2023-08-06T13:06:26;93679.88;;;28.06;43.29
62697;BME280;48761;42.680;23.312;2023-08-06T13:08:52;93675.63;;;28.45;42.23
62697;BME280;48761;42.680;23.312;2023-08-06T13:11:18;93679.44;;;28.44;42.83
62697;BME280;48761;42.680;23.312;2023-08-06T13:13:44;93680.41;;;28.38;42.73
62697;BME280;48761;42.680;23.312;2023-08-06T13:16:10;93690.22;;;27.87;43.26
62697;BME280;48761;42.680;23.312;2023-08-06T13:18:36;93691.09;;;27.63;43.66
62697;BME280;48761;42.680;23.312;2023-08-06T13:21:01;93689.16;;;27.47;44.05
62697;BME280;48761;42.680;23.312;2023-08-06T13:23:27;93686.84;;;27.68;42.93
62697;BME280;48761;42.680;23.312;2023-08-06T13:25:54;93700.47;;;27.68;43.40
62697;BME280;48761;42.680;23.312;2023-08-06T13:28:19;93700.19;;;27.81;42.93
62697;BME280;48761;42.680;23.312;2023-08-06T13:30:45;93694.25;;;27.84;43.32
62697;BME280;48761;42.680;23.312;2023-08-06T13:33:11;93694.38;;;28.07;42.19
62697;BME280;48761;42.680;23.312;2023-08-06T13:35:38;93695.41;;;27.89;43.06
62697;BME280;48761;42.680;23.312;2023-08-06T13:38:03;93705.56;;;28.23;42.05
62697;BME280;48761;42.680;23.312;2023-08-06T13:40:32;93691.81;;;28.35;42.14
62697;BME280;48761;42.680;23.312;2023-08-06T13:42:58;93697.31;;;28.69;41.17
62697;BME280;48761;42.680;23.312;2023-08-06T13:45:23;93690.00;;;28.40;42.00
62697;BME280;48761;42.680;23.312;2023-08-06T13:47:49;93694.78;;;28.85;41.34
62697;BME280;48761;42.680;23.312;2023-08-06T13:50:15;93688.53;;;28.50;41.63
62697;BME280;48761;42.680;23.312;2023-08-06T13:52:41;93692.63;;;27.83;42.71
62697;BME280;48761;42.680;23.312;2023-08-06T13:55:07;93692.66;;;28.18;42.32
62697;BME280;48761;42.680;23.312;2023-08-06T13:57:36;93688.81;;;27.84;42.49
62697;BME280;48761;42.680;23.312;2023-08-06T14:00:02;93692.09;;;27.86;42.51
62697;BME280;48761;42.680;23.312;2023-08-06T14:02:28;93682.72;;;28.12;42.57
62697;BME280;48761;42.680;23.312;2023-08-06T14:04:54;93676.53;;;28.34;41.53
62697;BME280;48761;42.680;23.312;2023-08-06T14:07:21;93686.72;;;28.56;41.50
62697;BME280;48761;42.680;23.312;2023-08-06T14:09:47;93691.47;;;28.83;40.38
62697;BME280;48761;42.680;23.312;2023-08-06T14:12:13;93678.25;;;28.23;41.29
62697;BME280;48761;42.680;23.312;2023-08-06T14:14:39;93678.97;;;27.71;42.30
62697;BME280;48761;42.680;23.312;2023-08-06T14:17:05;93671.91;;;28.51;40.64
62697;BME280;48761;42.680;23.312;2023-08-06T14:19:31;93678.38;;;27.81;41.99
62697;BME280;48761;42.680;23.312;2023-08-06T14:21:57;93671.69;;;27.60;42.49
62697;BME280;48761;42.680;23.312;2023-08-06T14:24:23;93668.81;;;27.96;42.16